sensor_id;sensor_type;location;lat;lon;timestamp;P1;durP1;ratioP1;P2;durP2;ratioP2
76935;SDS011;65881;52.438;16.744;2023-06-14T00:01:47;10.38;;;8.80;;
76935;SDS011;65881;52.438;16.744;2023-06-14T00:04:13;10.50;;;8.90;;
76935;SDS011;65881;52.438;16.744;2023-06-14T00:06:41;10.50;;;8.98;;
76935;SDS011;65881;52.438;16.744;2023-06-14T00:09:10;12.60;;;9.65;;
76935;SDS011;65881;52.438;16.744;2023-06-14T00:11:39;11.60;;;9.73;;
76935;SDS011;65881;52.438;16.744;2023-06-14T00:14:06;11.63;;;8.98;;
76935;SDS011;65881;52.438;16.744;2023-06-14T00:16:32;11.43;;;8.55;;
76935;SDS011;65881;52.438;16.744;2023-06-14T00:19:01;11.82;;;8.35;;
76935;SDS011;65881;52.438;16.744;2023-06-14T00:21:30;11.30;;;8.77;;
76935;SDS011;65881;52.438;16.744;2023-06-14T00:23:57;12.32;;;11.05;;
76935;SDS011;65881;52.438;16.744;2023-06-14T00:26:23;13.05;;;9.98;;
76935;SDS011;65881;52.438;16.744;2023-06-14T00:28:50;11.75;;;9.55;;
76935;SDS011;65881;52.438;16.744;2023-06-14T00:31:16;10.23;;;9.07;;
76935;SDS011;65881;52.438;16.744;2023-06-14T00:33:41;10.45;;;8.43;;
76935;SDS011;65881;52.438;16.744;2023-06-14T00:36:07;10.15;;;9.18;;
76935;SDS011;65881;52.438;16.744;2023-06-14T00:38:33;10.48;;;8.88;;
76935;SDS011;65881;52.438;16.744;2023-06-14T00:40:58;10.10;;;8.70;;
76935;SDS011;65881;52.438;16.744;2023-06-14T00:43:25;11.38;;;8.70;;
76935;SDS011;65881;52.438;16.744;2023-06-14T00:45:50;13.20;;;8.27;;
76935;SDS011;65881;52.438;16.744;2023-06-14T00:48:17;12.68;;;8.82;;
76935;SDS011;65881;52.438;16.744;2023-06-14T00:50:44;9.20;;;8.30;;
76935;SDS011;65881;52.438;16.744;2023-06-14T00:53:13;9.23;;;8.07;;
76935;SDS011;65881;52.438;16.744;2023-06-14T00:55:40;11.93;;;9.50;;
76935;SDS011;65881;52.438;16.744;2023-06-14T00:58:06;10.95;;;8.32;;
76935;SDS011;65881;52.438;16.744;2023-06-14T01:00:35;10.20;;;9.20;;
76935;SDS011;65881;52.438;16.744;2023-06-14T01:03:01;9.95;;;8.23;;
76935;SDS011;65881;52.438;16.744;2023-06-14T01:05:27;10.57;;;8.68;;
76935;SDS011;65881;52.438;16.744;2023-06-14T01:16:02;11.45;;;8.90;;
76935;SDS011;65881;52.438;16.744;2023-06-14T01:18:28;10.00;;;8.80;;
76935;SDS011;65881;52.438;16.744;2023-06-14T01:20:54;9.82;;;8.27;;
76935;SDS011;65881;52.438;16.744;2023-06-14T01:23:20;10.23;;;8.50;;
76935;SDS011;65881;52.438;16.744;2023-06-14T01:25:48;9.57;;;8.50;;
76935;SDS011;65881;52.438;16.744;2023-06-14T01:28:18;9.73;;;8.57;;
76935;SDS011;65881;52.438;16.744;2023-06-14T01:30:47;8.63;;;7.70;;
76935;SDS011;65881;52.438;16.744;2023-06-14T01:33:24;8.95;;;7.88;;
76935;SDS011;65881;52.438;16.744;2023-06-14T01:38:52;10.07;;;7.80;;
76935;SDS011;65881;52.438;16.744;2023-06-14T01:41:19;11.00;;;8.02;;
76935;SDS011;65881;52.438;16.744;2023-06-14T01:43:47;10.00;;;7.53;;
76935;SDS011;65881;52.438;16.744;2023-06-14T01:46:14;8.45;;;7.60;;
76935;SDS011;65881;52.438;16.744;2023-06-14T01:48:40;8.07;;;6.90;;
76935;SDS011;65881;52.438;16.744;2023-06-14T01:51:06;8.43;;;6.85;;
76935;SDS011;65881;52.438;16.744;2023-06-14T01:53:32;8.98;;;7.10;;
76935;SDS011;65881;52.438;16.744;2023-06-14T01:55:58;9.02;;;6.93;;
76935;SDS011;65881;52.438;16.744;2023-06-14T01:58:23;7.68;;;6.40;;
76935;SDS011;65881;52.438;16.744;2023-06-14T02:00:49;8.75;;;6.63;;
76935;SDS011;65881;52.438;16.744;2023-06-14T02:03:16;9.60;;;6.70;;
76935;SDS011;65881;52.438;16.744;2023-06-14T02:05:42;9.15;;;6.82;;
76935;SDS011;65881;52.438;16.744;2023-06-14T02:08:07;8.77;;;6.25;;
76935;SDS011;65881;52.438;16.744;2023-06-14T02:10:52;8.95;;;6.68;;
76935;SDS011;65881;52.438;16.744;2023-06-14T02:13:17;9.77;;;7.60;;
76935;SDS011;65881;52.438;16.744;2023-06-14T02:15:43;10.32;;;6.40;;
76935;SDS011;65881;52.438;16.744;2023-06-14T02:18:11;7.93;;;6.13;;
76935;SDS011;65881;52.438;16.744;2023-06-14T02:20:38;8.25;;;5.70;;
76935;SDS011;65881;52.438;16.744;2023-06-14T02:23:03;7.60;;;6.00;;
76935;SDS011;65881;52.438;16.744;2023-06-14T02:25:30;9.27;;;7.53;;
76935;SDS011;65881;52.438;16.744;2023-06-14T02:27:55;6.68;;;6.03;;
76935;SDS011;65881;52.438;16.744;2023-06-14T02:30:21;8.00;;;7.00;;
76935;SDS011;65881;52.438;16.744;2023-06-14T02:32:49;9.48;;;6.90;;
76935;SDS011;65881;52.438;16.744;2023-06-14T02:35:16;9.98;;;7.38;;
76935;SDS011;65881;52.438;16.744;2023-06-14T02:37:44;9.30;;;7.90;;
76935;SDS011;65881;52.438;16.744;2023-06-14T02:40:09;10.57;;;7.25;;
76935;SDS011;65881;52.438;16.744;2023-06-14T02:45:06;9.57;;;7.53;;
76935;SDS011;65881;52.438;16.744;2023-06-14T02:47:32;9.90;;;7.10;;
76935;SDS011;65881;52.438;16.744;2023-06-14T02:49:58;11.95;;;7.85;;
76935;SDS011;65881;52.438;16.744;2023-06-14T02:52:23;9.07;;;7.13;;
76935;SDS011;65881;52.438;16.744;2023-06-14T02:54:50;8.02;;;6.95;;
76935;SDS011;65881;52.438;16.744;2023-06-14T02:57:16;9.45;;;7.20;;
76935;SDS011;65881;52.438;16.744;2023-06-14T02:59:41;11.50;;;8.43;;
76935;SDS011;65881;52.438;16.744;2023-06-14T03:02:07;9.13;;;7.50;;
76935;SDS011;65881;52.438;16.744;2023-06-14T03:04:33;13.75;;;8.35;;
76935;SDS011;65881;52.438;16.744;2023-06-14T03:07:02;8.02;;;7.13;;
76935;SDS011;65881;52.438;16.744;2023-06-14T03:09:34;9.00;;;7.15;;
76935;SDS011;65881;52.438;16.744;2023-06-14T03:12:01;8.93;;;7.32;;
76935;SDS011;65881;52.438;16.744;2023-06-14T03:14:28;10.02;;;7.80;;
76935;SDS011;65881;52.438;16.744;2023-06-14T03:16:56;11.77;;;7.50;;
76935;SDS011;65881;52.438;16.744;2023-06-14T03:19:23;9.63;;;7.28;;
76935;SDS011;65881;52.438;16.744;2023-06-14T03:21:48;7.28;;;6.57;;
76935;SDS011;65881;52.438;16.744;2023-06-14T03:24:28;9.40;;;7.40;;
76935;SDS011;65881;52.438;16.744;2023-06-14T03:26:53;9.90;;;7.63;;
76935;SDS011;65881;52.438;16.744;2023-06-14T03:29:19;10.38;;;7.32;;
76935;SDS011;65881;52.438;16.744;2023-06-14T03:31:58;9.75;;;7.50;;
76935;SDS011;65881;52.438;16.744;2023-06-14T03:34:25;9.18;;;6.82;;
76935;SDS011;65881;52.438;16.744;2023-06-14T03:36:51;10.50;;;7.28;;
76935;SDS011;65881;52.438;16.744;2023-06-14T03:39:17;10.10;;;6.63;;
76935;SDS011;65881;52.438;16.744;2023-06-14T03:41:44;11.20;;;6.57;;
76935;SDS011;65881;52.438;16.744;2023-06-14T03:44:10;12.55;;;7.13;;
76935;SDS011;65881;52.438;16.744;2023-06-14T03:46:36;8.68;;;7.15;;
76935;SDS011;65881;52.438;16.744;2023-06-14T03:49:11;9.23;;;7.57;;
76935;SDS011;65881;52.438;16.744;2023-06-14T03:51:37;8.85;;;6.57;;
76935;SDS011;65881;52.438;16.744;2023-06-14T03:54:03;8.40;;;6.57;;
76935;SDS011;65881;52.438;16.744;2023-06-14T03:56:35;9.43;;;7.30;;
76935;SDS011;65881;52.438;16.744;2023-06-14T03:59:01;9.98;;;6.97;;
76935;SDS011;65881;52.438;16.744;2023-06-14T04:01:27;11.38;;;7.20;;
76935;SDS011;65881;52.438;16.744;2023-06-14T04:03:57;16.20;;;7.55;;
76935;SDS011;65881;52.438;16.744;2023-06-14T04:06:23;10.07;;;7.38;;
76935;SDS011;65881;52.438;16.744;2023-06-14T04:08:50;13.77;;;7.95;;
76935;SDS011;65881;52.438;16.744;2023-06-14T04:11:17;10.70;;;6.88;;
76935;SDS011;65881;52.438;16.744;2023-06-14T04:13:43;8.55;;;6.72;;
76935;SDS011;65881;52.438;16.744;2023-06-14T04:16:09;7.65;;;6.10;;
76935;SDS011;65881;52.438;16.744;2023-06-14T04:18:35;7.50;;;6.55;;
76935;SDS011;65881;52.438;16.744;2023-06-14T04:21:00;7.85;;;5.85;;
76935;SDS011;65881;52.438;16.744;2023-06-14T04:23:26;7.55;;;6.85;;
76935;SDS011;65881;52.438;16.744;2023-06-14T04:25:53;7.47;;;6.25;;
76935;SDS011;65881;52.438;16.744;2023-06-14T04:28:19;7.18;;;6.10;;
76935;SDS011;65881;52.438;16.744;2023-06-14T04:30:44;9.55;;;6.35;;
76935;SDS011;65881;52.438;16.744;2023-06-14T04:33:12;6.78;;;5.82;;
76935;SDS011;65881;52.438;16.744;2023-06-14T04:35:39;10.60;;;5.95;;
76935;SDS011;65881;52.438;16.744;2023-06-14T04:38:05;10.60;;;6.97;;
76935;SDS011;65881;52.438;16.744;2023-06-14T04:40:38;8.07;;;7.18;;
76935;SDS011;65881;52.438;16.744;2023-06-14T04:43:08;6.80;;;5.93;;
76935;SDS011;65881;52.438;16.744;2023-06-14T04:45:38;7.95;;;5.13;;
76935;SDS011;65881;52.438;16.744;2023-06-14T04:48:05;8.35;;;5.63;;
76935;SDS011;65881;52.438;16.744;2023-06-14T04:50:45;6.43;;;5.70;;
76935;SDS011;65881;52.438;16.744;2023-06-14T04:53:13;9.20;;;6.15;;
76935;SDS011;65881;52.438;16.744;2023-06-14T04:56:07;7.13;;;6.38;;
76935;SDS011;65881;52.438;16.744;2023-06-14T05:05:25;7.53;;;5.70;;
76935;SDS011;65881;52.438;16.744;2023-06-14T05:11:18;10.48;;;6.43;;
76935;SDS011;65881;52.438;16.744;2023-06-14T05:14:01;8.02;;;6.18;;
76935;SDS011;65881;52.438;16.744;2023-06-14T05:16:27;9.20;;;5.78;;
76935;SDS011;65881;52.438;16.744;2023-06-14T05:18:54;7.30;;;5.63;;
76935;SDS011;65881;52.438;16.744;2023-06-14T05:21:20;7.75;;;6.22;;
76935;SDS011;65881;52.438;16.744;2023-06-14T05:23:46;8.90;;;6.15;;
76935;SDS011;65881;52.438;16.744;2023-06-14T05:26:12;9.82;;;5.65;;
76935;SDS011;65881;52.438;16.744;2023-06-14T05:28:38;10.05;;;6.40;;
76935;SDS011;65881;52.438;16.744;2023-06-14T05:31:03;7.20;;;6.43;;
76935;SDS011;65881;52.438;16.744;2023-06-14T05:33:47;10.57;;;6.63;;
76935;SDS011;65881;52.438;16.744;2023-06-14T05:36:13;7.82;;;5.55;;
76935;SDS011;65881;52.438;16.744;2023-06-14T05:38:39;8.88;;;5.63;;
76935;SDS011;65881;52.438;16.744;2023-06-14T05:41:05;9.57;;;5.78;;
76935;SDS011;65881;52.438;16.744;2023-06-14T05:43:33;11.32;;;6.03;;
76935;SDS011;65881;52.438;16.744;2023-06-14T05:45:59;7.80;;;6.05;;
76935;SDS011;65881;52.438;16.744;2023-06-14T05:48:25;5.70;;;5.00;;
76935;SDS011;65881;52.438;16.744;2023-06-14T05:50:51;7.13;;;5.95;;
76935;SDS011;65881;52.438;16.744;2023-06-14T05:53:16;9.80;;;6.25;;
76935;SDS011;65881;52.438;16.744;2023-06-14T05:55:42;7.18;;;5.85;;
76935;SDS011;65881;52.438;16.744;2023-06-14T05:58:08;9.38;;;6.30;;
76935;SDS011;65881;52.438;16.744;2023-06-14T06:00:35;12.95;;;5.78;;
76935;SDS011;65881;52.438;16.744;2023-06-14T06:03:01;7.38;;;6.10;;
76935;SDS011;65881;52.438;16.744;2023-06-14T06:05:36;11.88;;;5.97;;
76935;SDS011;65881;52.438;16.744;2023-06-14T06:08:02;7.68;;;6.43;;
76935;SDS011;65881;52.438;16.744;2023-06-14T06:10:38;9.65;;;6.53;;
76935;SDS011;65881;52.438;16.744;2023-06-14T06:13:04;8.10;;;6.50;;
76935;SDS011;65881;52.438;16.744;2023-06-14T06:15:29;6.68;;;5.95;;
76935;SDS011;65881;52.438;16.744;2023-06-14T06:18:01;9.40;;;6.60;;
76935;SDS011;65881;52.438;16.744;2023-06-14T06:20:27;8.45;;;6.28;;
76935;SDS011;65881;52.438;16.744;2023-06-14T06:22:57;10.38;;;7.43;;
76935;SDS011;65881;52.438;16.744;2023-06-14T06:25:25;19.08;;;7.63;;
76935;SDS011;65881;52.438;16.744;2023-06-14T06:28:07;6.95;;;6.20;;
76935;SDS011;65881;52.438;16.744;2023-06-14T06:30:33;8.25;;;6.35;;
76935;SDS011;65881;52.438;16.744;2023-06-14T06:32:58;7.70;;;5.88;;
76935;SDS011;65881;52.438;16.744;2023-06-14T06:38:08;9.05;;;6.60;;
76935;SDS011;65881;52.438;16.744;2023-06-14T06:40:35;7.70;;;5.90;;
76935;SDS011;65881;52.438;16.744;2023-06-14T06:43:01;7.70;;;6.63;;
76935;SDS011;65881;52.438;16.744;2023-06-14T06:45:28;10.50;;;6.85;;
76935;SDS011;65881;52.438;16.744;2023-06-14T06:47:53;9.45;;;6.90;;
76935;SDS011;65881;52.438;16.744;2023-06-14T06:50:20;8.15;;;7.10;;
76935;SDS011;65881;52.438;16.744;2023-06-14T06:52:48;7.10;;;6.25;;
76935;SDS011;65881;52.438;16.744;2023-06-14T06:55:17;11.13;;;6.57;;
76935;SDS011;65881;52.438;16.744;2023-06-14T06:57:43;7.72;;;6.78;;
76935;SDS011;65881;52.438;16.744;2023-06-14T07:00:11;7.82;;;7.03;;
76935;SDS011;65881;52.438;16.744;2023-06-14T07:02:45;9.50;;;6.90;;
76935;SDS011;65881;52.438;16.744;2023-06-14T07:05:10;9.75;;;7.63;;
76935;SDS011;65881;52.438;16.744;2023-06-14T07:07:36;9.65;;;6.82;;
76935;SDS011;65881;52.438;16.744;2023-06-14T07:10:03;7.50;;;6.38;;
76935;SDS011;65881;52.438;16.744;2023-06-14T07:12:30;10.77;;;6.75;;
76935;SDS011;65881;52.438;16.744;2023-06-14T07:15:09;8.18;;;6.15;;
76935;SDS011;65881;52.438;16.744;2023-06-14T07:17:35;8.45;;;6.60;;
76935;SDS011;65881;52.438;16.744;2023-06-14T07:20:13;7.75;;;6.40;;
76935;SDS011;65881;52.438;16.744;2023-06-14T07:22:42;9.60;;;7.10;;
76935;SDS011;65881;52.438;16.744;2023-06-14T07:27:56;7.68;;;5.85;;
76935;SDS011;65881;52.438;16.744;2023-06-14T07:30:21;11.00;;;5.82;;
76935;SDS011;65881;52.438;16.744;2023-06-14T07:32:51;10.43;;;6.35;;
76935;SDS011;65881;52.438;16.744;2023-06-14T07:35:33;8.63;;;5.95;;
76935;SDS011;65881;52.438;16.744;2023-06-14T07:37:59;13.25;;;6.43;;
76935;SDS011;65881;52.438;16.744;2023-06-14T07:40:25;9.68;;;6.35;;
76935;SDS011;65881;52.438;16.744;2023-06-14T07:42:50;8.90;;;6.22;;
76935;SDS011;65881;52.438;16.744;2023-06-14T07:45:22;7.22;;;6.13;;
76935;SDS011;65881;52.438;16.744;2023-06-14T07:47:48;7.72;;;5.93;;
76935;SDS011;65881;52.438;16.744;2023-06-14T07:50:17;7.28;;;5.30;;
76935;SDS011;65881;52.438;16.744;2023-06-14T07:52:43;8.02;;;6.32;;
76935;SDS011;65881;52.438;16.744;2023-06-14T07:55:10;6.85;;;6.15;;
76935;SDS011;65881;52.438;16.744;2023-06-14T07:57:35;7.30;;;5.50;;
76935;SDS011;65881;52.438;16.744;2023-06-14T08:00:02;6.80;;;6.10;;
76935;SDS011;65881;52.438;16.744;2023-06-14T08:02:31;8.02;;;6.20;;
76935;SDS011;65881;52.438;16.744;2023-06-14T08:04:56;10.00;;;6.25;;
76935;SDS011;65881;52.438;16.744;2023-06-14T08:07:23;7.30;;;5.35;;
76935;SDS011;65881;52.438;16.744;2023-06-14T08:09:49;7.93;;;5.82;;
76935;SDS011;65881;52.438;16.744;2023-06-14T08:12:15;9.98;;;6.45;;
76935;SDS011;65881;52.438;16.744;2023-06-14T08:14:41;7.63;;;5.80;;
76935;SDS011;65881;52.438;16.744;2023-06-14T08:17:07;8.00;;;5.20;;
76935;SDS011;65881;52.438;16.744;2023-06-14T08:19:33;10.00;;;5.82;;
76935;SDS011;65881;52.438;16.744;2023-06-14T08:21:59;9.27;;;6.15;;
76935;SDS011;65881;52.438;16.744;2023-06-14T08:24:25;6.82;;;5.50;;
76935;SDS011;65881;52.438;16.744;2023-06-14T08:26:54;5.97;;;5.38;;
76935;SDS011;65881;52.438;16.744;2023-06-14T08:29:21;7.47;;;5.57;;
76935;SDS011;65881;52.438;16.744;2023-06-14T08:31:47;6.20;;;5.60;;
76935;SDS011;65881;52.438;16.744;2023-06-14T08:34:13;10.50;;;5.63;;
76935;SDS011;65881;52.438;16.744;2023-06-14T08:36:38;12.05;;;6.70;;
76935;SDS011;65881;52.438;16.744;2023-06-14T08:39:04;8.27;;;5.35;;
76935;SDS011;65881;52.438;16.744;2023-06-14T08:41:30;10.20;;;5.40;;
76935;SDS011;65881;52.438;16.744;2023-06-14T08:43:57;7.40;;;5.55;;
76935;SDS011;65881;52.438;16.744;2023-06-14T08:46:25;5.10;;;4.57;;
76935;SDS011;65881;52.438;16.744;2023-06-14T08:48:52;5.80;;;4.00;;
76935;SDS011;65881;52.438;16.744;2023-06-14T08:51:23;5.30;;;4.05;;
76935;SDS011;65881;52.438;16.744;2023-06-14T08:53:55;5.35;;;4.32;;
76935;SDS011;65881;52.438;16.744;2023-06-14T08:56:27;7.00;;;4.85;;
76935;SDS011;65881;52.438;16.744;2023-06-14T09:01:21;9.23;;;5.25;;
76935;SDS011;65881;52.438;16.744;2023-06-14T09:03:48;5.13;;;3.95;;
76935;SDS011;65881;52.438;16.744;2023-06-14T09:06:15;8.55;;;4.78;;
76935;SDS011;65881;52.438;16.744;2023-06-14T09:08:45;7.07;;;4.25;;
76935;SDS011;65881;52.438;16.744;2023-06-14T09:11:13;8.77;;;4.60;;
76935;SDS011;65881;52.438;16.744;2023-06-14T09:13:44;5.93;;;4.38;;
76935;SDS011;65881;52.438;16.744;2023-06-14T09:16:11;9.32;;;4.53;;
76935;SDS011;65881;52.438;16.744;2023-06-14T09:18:40;6.45;;;4.60;;
76935;SDS011;65881;52.438;16.744;2023-06-14T09:21:13;7.70;;;4.53;;
76935;SDS011;65881;52.438;16.744;2023-06-14T09:23:41;8.40;;;4.72;;
76935;SDS011;65881;52.438;16.744;2023-06-14T09:26:09;7.75;;;4.65;;
76935;SDS011;65881;52.438;16.744;2023-06-14T09:28:44;8.98;;;4.68;;
76935;SDS011;65881;52.438;16.744;2023-06-14T09:31:17;6.53;;;5.10;;
76935;SDS011;65881;52.438;16.744;2023-06-14T09:33:49;9.38;;;5.47;;
76935;SDS011;65881;52.438;16.744;2023-06-14T09:36:16;7.50;;;5.38;;
76935;SDS011;65881;52.438;16.744;2023-06-14T09:38:51;9.55;;;5.47;;
76935;SDS011;65881;52.438;16.744;2023-06-14T09:44:19;6.38;;;4.07;;
76935;SDS011;65881;52.438;16.744;2023-06-14T09:46:46;8.55;;;4.65;;
76935;SDS011;65881;52.438;16.744;2023-06-14T09:49:13;5.35;;;4.55;;
76935;SDS011;65881;52.438;16.744;2023-06-14T09:51:42;5.78;;;4.53;;
76935;SDS011;65881;52.438;16.744;2023-06-14T09:54:12;9.25;;;4.85;;
76935;SDS011;65881;52.438;16.744;2023-06-14T09:56:57;7.90;;;4.80;;
76935;SDS011;65881;52.438;16.744;2023-06-14T09:59:26;8.00;;;5.40;;
76935;SDS011;65881;52.438;16.744;2023-06-14T10:01:59;5.07;;;4.13;;
76935;SDS011;65881;52.438;16.744;2023-06-14T10:07:07;6.88;;;5.00;;
76935;SDS011;65881;52.438;16.744;2023-06-14T10:09:36;8.07;;;4.82;;
76935;SDS011;65881;52.438;16.744;2023-06-14T10:12:17;8.07;;;5.55;;
76935;SDS011;65881;52.438;16.744;2023-06-14T10:14:50;5.50;;;4.75;;
76935;SDS011;65881;52.438;16.744;2023-06-14T10:17:35;8.15;;;4.90;;
76935;SDS011;65881;52.438;16.744;2023-06-14T10:22:52;5.28;;;4.25;;
76935;SDS011;65881;52.438;16.744;2023-06-14T10:25:36;6.20;;;5.15;;
76935;SDS011;65881;52.438;16.744;2023-06-14T10:28:03;10.80;;;5.20;;
76935;SDS011;65881;52.438;16.744;2023-06-14T10:30:29;9.70;;;5.25;;
76935;SDS011;65881;52.438;16.744;2023-06-14T10:33:07;7.55;;;5.05;;
76935;SDS011;65881;52.438;16.744;2023-06-14T10:35:33;6.15;;;4.78;;
76935;SDS011;65881;52.438;16.744;2023-06-14T10:38:09;8.02;;;5.70;;
76935;SDS011;65881;52.438;16.744;2023-06-14T10:40:37;6.40;;;4.90;;
76935;SDS011;65881;52.438;16.744;2023-06-14T10:46:12;5.55;;;4.55;;
76935;SDS011;65881;52.438;16.744;2023-06-14T10:48:48;7.93;;;5.28;;
76935;SDS011;65881;52.438;16.744;2023-06-14T10:51:18;8.18;;;4.63;;
76935;SDS011;65881;52.438;16.744;2023-06-14T10:53:48;8.25;;;5.55;;
76935;SDS011;65881;52.438;16.744;2023-06-14T10:56:28;19.98;;;5.85;;
76935;SDS011;65881;52.438;16.744;2023-06-14T10:58:58;9.65;;;5.13;;
76935;SDS011;65881;52.438;16.744;2023-06-14T11:01:37;10.85;;;5.53;;
76935;SDS011;65881;52.438;16.744;2023-06-14T11:06:49;9.52;;;4.55;;
76935;SDS011;65881;52.438;16.744;2023-06-14T11:09:41;8.45;;;5.38;;
76935;SDS011;65881;52.438;16.744;2023-06-14T11:12:11;7.93;;;5.15;;
76935;SDS011;65881;52.438;16.744;2023-06-14T11:14:38;7.50;;;4.85;;
76935;SDS011;65881;52.438;16.744;2023-06-14T11:17:04;7.85;;;5.38;;
76935;SDS011;65881;52.438;16.744;2023-06-14T11:19:30;10.30;;;5.15;;
76935;SDS011;65881;52.438;16.744;2023-06-14T11:21:57;13.98;;;7.00;;
76935;SDS011;65881;52.438;16.744;2023-06-14T11:24:22;8.13;;;5.25;;
76935;SDS011;65881;52.438;16.744;2023-06-14T11:26:48;7.35;;;5.05;;
76935;SDS011;65881;52.438;16.744;2023-06-14T11:29:21;7.93;;;5.20;;
76935;SDS011;65881;52.438;16.744;2023-06-14T11:31:47;9.30;;;4.90;;
76935;SDS011;65881;52.438;16.744;2023-06-14T11:34:12;8.20;;;5.20;;
76935;SDS011;65881;52.438;16.744;2023-06-14T11:36:39;7.03;;;5.55;;
76935;SDS011;65881;52.438;16.744;2023-06-14T11:39:05;7.35;;;5.05;;
76935;SDS011;65881;52.438;16.744;2023-06-14T11:41:44;7.40;;;3.85;;
76935;SDS011;65881;52.438;16.744;2023-06-14T11:44:10;7.78;;;4.15;;
76935;SDS011;65881;52.438;16.744;2023-06-14T11:46:39;6.43;;;4.60;;
76935;SDS011;65881;52.438;16.744;2023-06-14T11:49:12;7.38;;;4.90;;
76935;SDS011;65881;52.438;16.744;2023-06-14T11:51:40;7.32;;;5.18;;
76935;SDS011;65881;52.438;16.744;2023-06-14T11:54:08;6.68;;;4.00;;
76935;SDS011;65881;52.438;16.744;2023-06-14T11:56:33;6.72;;;4.43;;
76935;SDS011;65881;52.438;16.744;2023-06-14T11:59:01;5.63;;;4.07;;
76935;SDS011;65881;52.438;16.744;2023-06-14T12:01:29;6.03;;;4.20;;
76935;SDS011;65881;52.438;16.744;2023-06-14T12:03:56;4.57;;;4.03;;
76935;SDS011;65881;52.438;16.744;2023-06-14T12:06:25;9.73;;;4.07;;
76935;SDS011;65881;52.438;16.744;2023-06-14T12:08:58;6.10;;;4.43;;
76935;SDS011;65881;52.438;16.744;2023-06-14T12:14:03;8.27;;;5.20;;
76935;SDS011;65881;52.438;16.744;2023-06-14T12:16:33;6.82;;;3.78;;
76935;SDS011;65881;52.438;16.744;2023-06-14T12:19:01;7.78;;;3.92;;
76935;SDS011;65881;52.438;16.744;2023-06-14T12:21:40;5.90;;;4.45;;
76935;SDS011;65881;52.438;16.744;2023-06-14T12:24:06;5.05;;;4.03;;
76935;SDS011;65881;52.438;16.744;2023-06-14T12:26:33;5.53;;;3.63;;
76935;SDS011;65881;52.438;16.744;2023-06-14T12:29:04;6.90;;;3.40;;
76935;SDS011;65881;52.438;16.744;2023-06-14T12:31:32;8.57;;;4.53;;
76935;SDS011;65881;52.438;16.744;2023-06-14T12:33:57;5.80;;;4.10;;
76935;SDS011;65881;52.438;16.744;2023-06-14T12:36:24;4.22;;;3.80;;
76935;SDS011;65881;52.438;16.744;2023-06-14T12:38:50;6.50;;;4.78;;
76935;SDS011;65881;52.438;16.744;2023-06-14T12:41:19;5.70;;;4.40;;
76935;SDS011;65881;52.438;16.744;2023-06-14T12:43:47;7.75;;;4.55;;
76935;SDS011;65881;52.438;16.744;2023-06-14T12:46:13;7.55;;;3.50;;
76935;SDS011;65881;52.438;16.744;2023-06-14T12:48:39;12.18;;;4.65;;
76935;SDS011;65881;52.438;16.744;2023-06-14T12:51:05;7.68;;;4.05;;
76935;SDS011;65881;52.438;16.744;2023-06-14T12:53:31;4.78;;;4.28;;
76935;SDS011;65881;52.438;16.744;2023-06-14T12:55:57;4.72;;;3.95;;
76935;SDS011;65881;52.438;16.744;2023-06-14T12:58:23;8.23;;;4.60;;
76935;SDS011;65881;52.438;16.744;2023-06-14T13:00:49;3.83;;;3.47;;
76935;SDS011;65881;52.438;16.744;2023-06-14T13:03:15;7.65;;;3.78;;
76935;SDS011;65881;52.438;16.744;2023-06-14T13:05:41;5.15;;;3.35;;
76935;SDS011;65881;52.438;16.744;2023-06-14T13:08:08;10.48;;;4.43;;
76935;SDS011;65881;52.438;16.744;2023-06-14T13:10:34;4.32;;;3.50;;
76935;SDS011;65881;52.438;16.744;2023-06-14T13:12:59;6.97;;;4.35;;
76935;SDS011;65881;52.438;16.744;2023-06-14T13:15:26;7.20;;;4.72;;
76935;SDS011;65881;52.438;16.744;2023-06-14T13:17:52;7.25;;;4.50;;
76935;SDS011;65881;52.438;16.744;2023-06-14T13:20:20;6.57;;;4.20;;
76935;SDS011;65881;52.438;16.744;2023-06-14T13:22:45;6.35;;;3.97;;
76935;SDS011;65881;52.438;16.744;2023-06-14T13:25:11;5.35;;;3.83;;
76935;SDS011;65881;52.438;16.744;2023-06-14T13:27:38;8.25;;;4.28;;
76935;SDS011;65881;52.438;16.744;2023-06-14T13:30:04;7.55;;;4.38;;
76935;SDS011;65881;52.438;16.744;2023-06-14T13:32:34;5.72;;;3.72;;
76935;SDS011;65881;52.438;16.744;2023-06-14T13:35:00;7.40;;;4.35;;
76935;SDS011;65881;52.438;16.744;2023-06-14T13:37:25;6.88;;;4.20;;
76935;SDS011;65881;52.438;16.744;2023-06-14T13:39:51;7.15;;;4.38;;
76935;SDS011;65881;52.438;16.744;2023-06-14T13:42:17;5.45;;;3.78;;
76935;SDS011;65881;52.438;16.744;2023-06-14T13:44:43;5.78;;;3.72;;
76935;SDS011;65881;52.438;16.744;2023-06-14T13:47:08;5.22;;;3.63;;
76935;SDS011;65881;52.438;16.744;2023-06-14T13:49:34;4.60;;;3.70;;
76935;SDS011;65881;52.438;16.744;2023-06-14T13:52:01;4.25;;;3.53;;
76935;SDS011;65881;52.438;16.744;2023-06-14T13:54:29;6.50;;;3.65;;
76935;SDS011;65881;52.438;16.744;2023-06-14T13:56:58;7.85;;;4.70;;
76935;SDS011;65881;52.438;16.744;2023-06-14T13:59:24;4.32;;;3.50;;
76935;SDS011;65881;52.438;16.744;2023-06-14T14:01:49;5.43;;;4.03;;
76935;SDS011;65881;52.438;16.744;2023-06-14T14:04:15;5.03;;;3.85;;
76935;SDS011;65881;52.438;16.744;2023-06-14T14:09:40;6.80;;;3.50;;
76935;SDS011;65881;52.438;16.744;2023-06-14T14:12:07;5.68;;;3.88;;
76935;SDS011;65881;52.438;16.744;2023-06-14T14:14:33;5.70;;;4.05;;
76935;SDS011;65881;52.438;16.744;2023-06-14T14:16:59;6.75;;;3.85;;
76935;SDS011;65881;52.438;16.744;2023-06-14T14:19:25;6.88;;;3.80;;
76935;SDS011;65881;52.438;16.744;2023-06-14T14:21:50;4.72;;;3.70;;
76935;SDS011;65881;52.438;16.744;2023-06-14T14:24:21;4.82;;;3.58;;
76935;SDS011;65881;52.438;16.744;2023-06-14T14:26:46;4.38;;;3.53;;
76935;SDS011;65881;52.438;16.744;2023-06-14T14:29:18;5.80;;;4.82;;
76935;SDS011;65881;52.438;16.744;2023-06-14T14:31:44;4.20;;;3.45;;
76935;SDS011;65881;52.438;16.744;2023-06-14T14:34:10;5.80;;;3.78;;
76935;SDS011;65881;52.438;16.744;2023-06-14T14:36:35;8.43;;;3.60;;
76935;SDS011;65881;52.438;16.744;2023-06-14T14:39:03;6.43;;;4.18;;
76935;SDS011;65881;52.438;16.744;2023-06-14T14:41:29;6.93;;;4.38;;
76935;SDS011;65881;52.438;16.744;2023-06-14T14:43:54;5.93;;;4.78;;
76935;SDS011;65881;52.438;16.744;2023-06-14T14:46:20;4.40;;;3.85;;
76935;SDS011;65881;52.438;16.744;2023-06-14T14:48:46;6.07;;;4.43;;
76935;SDS011;65881;52.438;16.744;2023-06-14T14:51:14;8.95;;;3.92;;
76935;SDS011;65881;52.438;16.744;2023-06-14T14:53:40;6.57;;;4.03;;
76935;SDS011;65881;52.438;16.744;2023-06-14T14:56:05;8.85;;;4.30;;
76935;SDS011;65881;52.438;16.744;2023-06-14T14:58:33;5.13;;;3.65;;
76935;SDS011;65881;52.438;16.744;2023-06-14T15:00:59;5.18;;;3.92;;
76935;SDS011;65881;52.438;16.744;2023-06-14T15:03:25;6.35;;;4.65;;
76935;SDS011;65881;52.438;16.744;2023-06-14T15:08:19;6.63;;;4.53;;
76935;SDS011;65881;52.438;16.744;2023-06-14T15:10:45;7.72;;;3.95;;
76935;SDS011;65881;52.438;16.744;2023-06-14T15:13:12;11.90;;;4.68;;
76935;SDS011;65881;52.438;16.744;2023-06-14T15:15:37;9.18;;;4.10;;
76935;SDS011;65881;52.438;16.744;2023-06-14T15:18:11;10.05;;;4.63;;
76935;SDS011;65881;52.438;16.744;2023-06-14T15:20:37;7.28;;;4.05;;
76935;SDS011;65881;52.438;16.744;2023-06-14T15:23:02;9.80;;;4.53;;
76935;SDS011;65881;52.438;16.744;2023-06-14T15:25:36;6.07;;;4.03;;
76935;SDS011;65881;52.438;16.744;2023-06-14T15:28:02;4.88;;;4.13;;
76935;SDS011;65881;52.438;16.744;2023-06-14T15:30:31;6.22;;;4.30;;